sensor_id;sensor_type;location;lat;lon;timestamp;P1;P2;P0
37775;PMS5003;23614;33.774;130.514;2023-03-08T00:01:45;49;48;
37775;PMS5003;23614;33.774;130.514;2023-03-08T00:04:11;52;47;
37775;PMS5003;23614;33.774;130.514;2023-03-08T00:06:37;48;45;
37775;PMS5003;23614;33.774;130.514;2023-03-08T00:09:03;49;46;
37775;PMS5003;23614;33.774;130.514;2023-03-08T00:11:29;52;48;
37775;PMS5003;23614;33.774;130.514;2023-03-08T00:13:56;50;45;
37775;PMS5003;23614;33.774;130.514;2023-03-08T00:16:22;50;45;
37775;PMS5003;23614;33.774;130.514;2023-03-08T00:18:47;52;51;
37775;PMS5003;23614;33.774;130.514;2023-03-08T00:21:14;54;48;
37775;PMS5003;23614;33.774;130.514;2023-03-08T00:23:39;50;47;
37775;PMS5003;23614;33.774;130.514;2023-03-08T00:26:05;55;52;
37775;PMS5003;23614;33.774;130.514;2023-03-08T00:28:31;49;44;
37775;PMS5003;23614;33.774;130.514;2023-03-08T00:30:58;48;43;
37775;PMS5003;23614;33.774;130.514;2023-03-08T00:33:23;46;45;
37775;PMS5003;23614;33.774;130.514;2023-03-08T00:35:56;54;54;
37775;PMS5003;23614;33.774;130.514;2023-03-08T00:38:15;49;46;
37775;PMS5003;23614;33.774;130.514;2023-03-08T00:40:41;52;48;
37775;PMS5003;23614;33.774;130.514;2023-03-08T00:43:08;55;51;
37775;PMS5003;23614;33.774;130.514;2023-03-08T00:45:33;51;46;
37775;PMS5003;23614;33.774;130.514;2023-03-08T00:47:59;56;52;
37775;PMS5003;23614;33.774;130.514;2023-03-08T00:50:25;58;51;
37775;PMS5003;23614;33.774;130.514;2023-03-08T00:52:51;51;49;
37775;PMS5003;23614;33.774;130.514;2023-03-08T00:55:17;52;50;
37775;PMS5003;23614;33.774;130.514;2023-03-08T00:57:43;43;42;
37775;PMS5003;23614;33.774;130.514;2023-03-08T01:00:10;53;48;
37775;PMS5003;23614;33.774;130.514;2023-03-08T01:02:35;52;50;
37775;PMS5003;23614;33.774;130.514;2023-03-08T01:05:01;50;47;
37775;PMS5003;23614;33.774;130.514;2023-03-08T01:07:28;54;49;
37775;PMS5003;23614;33.774;130.514;2023-03-08T01:09:53;56;47;
37775;PMS5003;23614;33.774;130.514;2023-03-08T01:12:19;54;52;
37775;PMS5003;23614;33.774;130.514;2023-03-08T01:14:46;53;51;
37775;PMS5003;23614;33.774;130.514;2023-03-08T01:17:11;46;42;
37775;PMS5003;23614;33.774;130.514;2023-03-08T01:19:37;56;55;
37775;PMS5003;23614;33.774;130.514;2023-03-08T01:22:03;52;48;
37775;PMS5003;23614;33.774;130.514;2023-03-08T01:24:29;45;45;
37775;PMS5003;23614;33.774;130.514;2023-03-08T01:26:55;51;44;
37775;PMS5003;23614;33.774;130.514;2023-03-08T01:29:21;49;47;
37775;PMS5003;23614;33.774;130.514;2023-03-08T01:31:47;45;42;
37775;PMS5003;23614;33.774;130.514;2023-03-08T01:34:13;50;45;
37775;PMS5003;23614;33.774;130.514;2023-03-08T01:36:39;56;51;
37775;PMS5003;23614;33.774;130.514;2023-03-08T01:39:05;49;46;
37775;PMS5003;23614;33.774;130.514;2023-03-08T01:41:31;50;48;
37775;PMS5003;23614;33.774;130.514;2023-03-08T01:43:58;49;47;
37775;PMS5003;23614;33.774;130.514;2023-03-08T01:46:24;49;46;
37775;PMS5003;23614;33.774;130.514;2023-03-08T01:48:51;48;46;
37775;PMS5003;23614;33.774;130.514;2023-03-08T01:51:16;57;53;
37775;PMS5003;23614;33.774;130.514;2023-03-08T01:53:43;54;51;
37775;PMS5003;23614;33.774;130.514;2023-03-08T01:56:08;49;45;
37775;PMS5003;23614;33.774;130.514;2023-03-08T01:58:33;56;53;
37775;PMS5003;23614;33.774;130.514;2023-03-08T02:00:59;48;44;
37775;PMS5003;23614;33.774;130.514;2023-03-08T02:03:25;53;46;
37775;PMS5003;23614;33.774;130.514;2023-03-08T02:05:51;52;50;
37775;PMS5003;23614;33.774;130.514;2023-03-08T02:08:18;50;46;
37775;PMS5003;23614;33.774;130.514;2023-03-08T02:10:43;44;43;
37775;PMS5003;23614;33.774;130.514;2023-03-08T02:13:09;42;39;
37775;PMS5003;23614;33.774;130.514;2023-03-08T02:15:35;45;41;
37775;PMS5003;23614;33.774;130.514;2023-03-08T02:18:01;50;46;
37775;PMS5003;23614;33.774;130.514;2023-03-08T02:20:28;47;43;
37775;PMS5003;23614;33.774;130.514;2023-03-08T02:22:54;48;43;
37775;PMS5003;23614;33.774;130.514;2023-03-08T02:25:20;51;44;
37775;PMS5003;23614;33.774;130.514;2023-03-08T02:27:45;47;45;
37775;PMS5003;23614;33.774;130.514;2023-03-08T02:30:12;52;49;
37775;PMS5003;23614;33.774;130.514;2023-03-08T02:32:37;52;50;
37775;PMS5003;23614;33.774;130.514;2023-03-08T02:35:03;55;52;
37775;PMS5003;23614;33.774;130.514;2023-03-08T02:37:30;55;53;
37775;PMS5003;23614;33.774;130.514;2023-03-08T02:39:55;53;48;
37775;PMS5003;23614;33.774;130.514;2023-03-08T02:42:21;50;45;
37775;PMS5003;23614;33.774;130.514;2023-03-08T02:44:47;52;50;
37775;PMS5003;23614;33.774;130.514;2023-03-08T02:47:13;51;48;
37775;PMS5003;23614;33.774;130.514;2023-03-08T02:49:39;43;42;
37775;PMS5003;23614;33.774;130.514;2023-03-08T02:52:05;46;44;
37775;PMS5003;23614;33.774;130.514;2023-03-08T02:54:31;45;40;
37775;PMS5003;23614;33.774;130.514;2023-03-08T02:56:57;47;44;
37775;PMS5003;23614;33.774;130.514;2023-03-08T02:59:23;55;51;
37775;PMS5003;23614;33.774;130.514;2023-03-08T03:01:49;50;48;
37775;PMS5003;23614;33.774;130.514;2023-03-08T03:04:15;51;43;
37775;PMS5003;23614;33.774;130.514;2023-03-08T03:06:41;48;45;
37775;PMS5003;23614;33.774;130.514;2023-03-08T03:09:08;46;45;
37775;PMS5003;23614;33.774;130.514;2023-03-08T03:11:34;46;42;
37775;PMS5003;23614;33.774;130.514;2023-03-08T03:13:59;45;41;
37775;PMS5003;23614;33.774;130.514;2023-03-08T03:16:26;44;41;
37775;PMS5003;23614;33.774;130.514;2023-03-08T03:18:51;52;45;
37775;PMS5003;23614;33.774;130.514;2023-03-08T03:21:17;47;44;
37775;PMS5003;23614;33.774;130.514;2023-03-08T03:23:43;53;45;
37775;PMS5003;23614;33.774;130.514;2023-03-08T03:26:09;45;42;
37775;PMS5003;23614;33.774;130.514;2023-03-08T03:28:34;44;43;
37775;PMS5003;23614;33.774;130.514;2023-03-08T03:31:00;39;39;
37775;PMS5003;23614;33.774;130.514;2023-03-08T03:33:26;49;48;
37775;PMS5003;23614;33.774;130.514;2023-03-08T03:35:52;42;41;
37775;PMS5003;23614;33.774;130.514;2023-03-08T03:38:18;53;46;
37775;PMS5003;23614;33.774;130.514;2023-03-08T03:40:44;54;49;
37775;PMS5003;23614;33.774;130.514;2023-03-08T03:43:10;44;43;
37775;PMS5003;23614;33.774;130.514;2023-03-08T03:45:37;45;42;
37775;PMS5003;23614;33.774;130.514;2023-03-08T03:48:02;45;41;
37775;PMS5003;23614;33.774;130.514;2023-03-08T03:50:28;51;45;
37775;PMS5003;23614;33.774;130.514;2023-03-08T03:52:54;49;45;
37775;PMS5003;23614;33.774;130.514;2023-03-08T03:55:20;40;39;
37775;PMS5003;23614;33.774;130.514;2023-03-08T03:57:46;46;43;
37775;PMS5003;23614;33.774;130.514;2023-03-08T04:00:13;49;46;
37775;PMS5003;23614;33.774;130.514;2023-03-08T04:02:38;56;49;
37775;PMS5003;23614;33.774;130.514;2023-03-08T04:05:04;46;44;
37775;PMS5003;23614;33.774;130.514;2023-03-08T04:07:31;50;48;
37775;PMS5003;23614;33.774;130.514;2023-03-08T04:09:56;48;45;
37775;PMS5003;23614;33.774;130.514;2023-03-08T04:12:22;55;52;
37775;PMS5003;23614;33.774;130.514;2023-03-08T04:14:48;54;49;
37775;PMS5003;23614;33.774;130.514;2023-03-08T04:17:14;43;41;
37775;PMS5003;23614;33.774;130.514;2023-03-08T04:19:40;51;44;
37775;PMS5003;23614;33.774;130.514;2023-03-08T04:22:07;47;44;
37775;PMS5003;23614;33.774;130.514;2023-03-08T04:24:32;51;49;
37775;PMS5003;23614;33.774;130.514;2023-03-08T04:26:58;51;45;
37775;PMS5003;23614;33.774;130.514;2023-03-08T04:29:24;55;51;
37775;PMS5003;23614;33.774;130.514;2023-03-08T04:31:50;46;44;
37775;PMS5003;23614;33.774;130.514;2023-03-08T04:34:16;43;40;
37775;PMS5003;23614;33.774;130.514;2023-03-08T04:36:42;49;47;
37775;PMS5003;23614;33.774;130.514;2023-03-08T04:39:08;48;45;
37775;PMS5003;23614;33.774;130.514;2023-03-08T04:41:34;41;39;
37775;PMS5003;23614;33.774;130.514;2023-03-08T04:44:00;49;47;
37775;PMS5003;23614;33.774;130.514;2023-03-08T04:46:26;43;42;
37775;PMS5003;23614;33.774;130.514;2023-03-08T04:48:52;49;43;
37775;PMS5003;23614;33.774;130.514;2023-03-08T04:51:18;42;39;
37775;PMS5003;23614;33.774;130.514;2023-03-08T04:53:44;39;37;
37775;PMS5003;23614;33.774;130.514;2023-03-08T04:56:11;44;39;
37775;PMS5003;23614;33.774;130.514;2023-03-08T04:58:36;39;34;
37775;PMS5003;23614;33.774;130.514;2023-03-08T05:01:07;41;37;
37775;PMS5003;23614;33.774;130.514;2023-03-08T05:03:28;40;38;
37775;PMS5003;23614;33.774;130.514;2023-03-08T05:05:54;42;41;
37775;PMS5003;23614;33.774;130.514;2023-03-08T05:08:21;42;39;
37775;PMS5003;23614;33.774;130.514;2023-03-08T05:10:47;41;39;
37775;PMS5003;23614;33.774;130.514;2023-03-08T05:13:12;43;38;
37775;PMS5003;23614;33.774;130.514;2023-03-08T05:15:38;44;41;
37775;PMS5003;23614;33.774;130.514;2023-03-08T05:18:05;43;42;
37775;PMS5003;23614;33.774;130.514;2023-03-08T05:20:30;49;46;
37775;PMS5003;23614;33.774;130.514;2023-03-08T05:22:56;49;45;
37775;PMS5003;23614;33.774;130.514;2023-03-08T05:25:22;48;45;
37775;PMS5003;23614;33.774;130.514;2023-03-08T05:27:49;54;50;
37775;PMS5003;23614;33.774;130.514;2023-03-08T05:30:14;51;44;
37775;PMS5003;23614;33.774;130.514;2023-03-08T05:32:40;39;38;
37775;PMS5003;23614;33.774;130.514;2023-03-08T05:35:07;41;41;
37775;PMS5003;23614;33.774;130.514;2023-03-08T05:37:32;45;38;
37775;PMS5003;23614;33.774;130.514;2023-03-08T05:39:58;45;43;
37775;PMS5003;23614;33.774;130.514;2023-03-08T05:42:24;43;39;
37775;PMS5003;23614;33.774;130.514;2023-03-08T05:44:50;43;38;
37775;PMS5003;23614;33.774;130.514;2023-03-08T05:47:16;38;37;
37775;PMS5003;23614;33.774;130.514;2023-03-08T05:49:42;38;33;
37775;PMS5003;23614;33.774;130.514;2023-03-08T05:52:08;43;40;
37775;PMS5003;23614;33.774;130.514;2023-03-08T05:54:34;43;37;
37775;PMS5003;23614;33.774;130.514;2023-03-08T05:57:01;51;42;
37775;PMS5003;23614;33.774;130.514;2023-03-08T05:59:26;41;37;
37775;PMS5003;23614;33.774;130.514;2023-03-08T06:01:52;48;42;
37775;PMS5003;23614;33.774;130.514;2023-03-08T06:04:18;42;40;
37775;PMS5003;23614;33.774;130.514;2023-03-08T06:06:44;45;43;
37775;PMS5003;23614;33.774;130.514;2023-03-08T06:09:10;51;46;
37775;PMS5003;23614;33.774;130.514;2023-03-08T06:11:36;47;42;
37775;PMS5003;23614;33.774;130.514;2023-03-08T06:14:02;43;38;
37775;PMS5003;23614;33.774;130.514;2023-03-08T06:16:28;36;35;
37775;PMS5003;23614;33.774;130.514;2023-03-08T06:18:54;46;41;
37775;PMS5003;23614;33.774;130.514;2023-03-08T06:21:21;43;40;
37775;PMS5003;23614;33.774;130.514;2023-03-08T06:23:46;45;40;
37775;PMS5003;23614;33.774;130.514;2023-03-08T06:26:12;45;42;
37775;PMS5003;23614;33.774;130.514;2023-03-08T06:28:39;49;45;
37775;PMS5003;23614;33.774;130.514;2023-03-08T06:31:04;50;45;
37775;PMS5003;23614;33.774;130.514;2023-03-08T06:33:31;40;39;
37775;PMS5003;23614;33.774;130.514;2023-03-08T06:35:58;48;46;
37775;PMS5003;23614;33.774;130.514;2023-03-08T06:38:22;45;42;
37775;PMS5003;23614;33.774;130.514;2023-03-08T06:40:48;39;38;
37775;PMS5003;23614;33.774;130.514;2023-03-08T06:43:14;34;32;
37775;PMS5003;23614;33.774;130.514;2023-03-08T06:45:40;51;43;
37775;PMS5003;23614;33.774;130.514;2023-03-08T06:48:06;43;39;
37775;PMS5003;23614;33.774;130.514;2023-03-08T06:50:32;42;36;
37775;PMS5003;23614;33.774;130.514;2023-03-08T06:52:58;46;40;
37775;PMS5003;23614;33.774;130.514;2023-03-08T06:55:24;43;41;
37775;PMS5003;23614;33.774;130.514;2023-03-08T06:57:50;46;40;
37775;PMS5003;23614;33.774;130.514;2023-03-08T07:00:16;45;42;
37775;PMS5003;23614;33.774;130.514;2023-03-08T07:02:42;46;43;
37775;PMS5003;23614;33.774;130.514;2023-03-08T07:05:08;40;38;
37775;PMS5003;23614;33.774;130.514;2023-03-08T07:07:34;44;40;
37775;PMS5003;23614;33.774;130.514;2023-03-08T07:10:00;44;40;
37775;PMS5003;23614;33.774;130.514;2023-03-08T07:12:26;39;35;
37775;PMS5003;23614;33.774;130.514;2023-03-08T07:14:52;48;38;
37775;PMS5003;23614;33.774;130.514;2023-03-08T07:17:18;40;35;
37775;PMS5003;23614;33.774;130.514;2023-03-08T07:19:44;42;41;
37775;PMS5003;23614;33.774;130.514;2023-03-08T07:22:10;42;38;
37775;PMS5003;23614;33.774;130.514;2023-03-08T07:24:36;39;36;
37775;PMS5003;23614;33.774;130.514;2023-03-08T07:27:02;39;35;
37775;PMS5003;23614;33.774;130.514;2023-03-08T07:29:28;36;35;
37775;PMS5003;23614;33.774;130.514;2023-03-08T07:31:54;42;40;
37775;PMS5003;23614;33.774;130.514;2023-03-08T07:34:21;44;39;
37775;PMS5003;23614;33.774;130.514;2023-03-08T07:36:47;45;38;
37775;PMS5003;23614;33.774;130.514;2023-03-08T07:39:12;45;39;
37775;PMS5003;23614;33.774;130.514;2023-03-08T07:41:38;40;37;
37775;PMS5003;23614;33.774;130.514;2023-03-08T07:44:04;40;39;
37775;PMS5003;23614;33.774;130.514;2023-03-08T07:46:30;47;43;
37775;PMS5003;23614;33.774;130.514;2023-03-08T07:48:56;44;42;
37775;PMS5003;23614;33.774;130.514;2023-03-08T07:51:22;48;45;
37775;PMS5003;23614;33.774;130.514;2023-03-08T07:53:49;36;35;
37775;PMS5003;23614;33.774;130.514;2023-03-08T07:56:14;44;41;
37775;PMS5003;23614;33.774;130.514;2023-03-08T07:58:40;38;32;
37775;PMS5003;23614;33.774;130.514;2023-03-08T08:01:08;42;40;
37775;PMS5003;23614;33.774;130.514;2023-03-08T08:03:32;43;38;
37775;PMS5003;23614;33.774;130.514;2023-03-08T08:06:00;46;40;
37775;PMS5003;23614;33.774;130.514;2023-03-08T08:08:24;43;40;
37775;PMS5003;23614;33.774;130.514;2023-03-08T08:10:50;42;33;
37775;PMS5003;23614;33.774;130.514;2023-03-08T08:13:17;37;35;
37775;PMS5003;23614;33.774;130.514;2023-03-08T08:15:42;39;33;
37775;PMS5003;23614;33.774;130.514;2023-03-08T08:18:08;43;37;
37775;PMS5003;23614;33.774;130.514;2023-03-08T08:20:34;39;36;
37775;PMS5003;23614;33.774;130.514;2023-03-08T08:23:00;37;36;
37775;PMS5003;23614;33.774;130.514;2023-03-08T08:25:26;39;34;
37775;PMS5003;23614;33.774;130.514;2023-03-08T08:27:52;44;42;
37775;PMS5003;23614;33.774;130.514;2023-03-08T08:30:18;40;36;
37775;PMS5003;23614;33.774;130.514;2023-03-08T08:32:44;40;34;
37775;PMS5003;23614;33.774;130.514;2023-03-08T08:35:11;37;32;
37775;PMS5003;23614;33.774;130.514;2023-03-08T08:37:36;34;34;
37775;PMS5003;23614;33.774;130.514;2023-03-08T08:40:03;39;37;
37775;PMS5003;23614;33.774;130.514;2023-03-08T08:42:28;40;35;
37775;PMS5003;23614;33.774;130.514;2023-03-08T08:44:54;37;33;
37775;PMS5003;23614;33.774;130.514;2023-03-08T08:47:20;38;35;
37775;PMS5003;23614;33.774;130.514;2023-03-08T08:49:46;38;35;
37775;PMS5003;23614;33.774;130.514;2023-03-08T08:52:12;40;36;
37775;PMS5003;23614;33.774;130.514;2023-03-08T08:54:38;41;36;
37775;PMS5003;23614;33.774;130.514;2023-03-08T08:57:04;41;37;
37775;PMS5003;23614;33.774;130.514;2023-03-08T08:59:30;40;33;
37775;PMS5003;23614;33.774;130.514;2023-03-08T09:01:56;34;32;
37775;PMS5003;23614;33.774;130.514;2023-03-08T09:04:22;41;37;
37775;PMS5003;23614;33.774;130.514;2023-03-08T09:06:48;40;37;
37775;PMS5003;23614;33.774;130.514;2023-03-08T09:09:14;40;37;
37775;PMS5003;23614;33.774;130.514;2023-03-08T09:11:40;37;33;
37775;PMS5003;23614;33.774;130.514;2023-03-08T09:14:06;32;30;
37775;PMS5003;23614;33.774;130.514;2023-03-08T09:16:32;39;37;
37775;PMS5003;23614;33.774;130.514;2023-03-08T09:18:59;34;32;
37775;PMS5003;23614;33.774;130.514;2023-03-08T09:21:25;45;39;
37775;PMS5003;23614;33.774;130.514;2023-03-08T09:23:50;44;41;
37775;PMS5003;23614;33.774;130.514;2023-03-08T09:26:17;33;29;
37775;PMS5003;23614;33.774;130.514;2023-03-08T09:28:42;40;34;
37775;PMS5003;23614;33.774;130.514;2023-03-08T09:31:09;38;34;
37775;PMS5003;23614;33.774;130.514;2023-03-08T09:33:34;32;31;
37775;PMS5003;23614;33.774;130.514;2023-03-08T09:36:00;38;32;
37775;PMS5003;23614;33.774;130.514;2023-03-08T09:38:26;39;37;
37775;PMS5003;23614;33.774;130.514;2023-03-08T09:40:55;33;30;
37775;PMS5003;23614;33.774;130.514;2023-03-08T09:43:19;44;38;
37775;PMS5003;23614;33.774;130.514;2023-03-08T09:45:44;36;32;
37775;PMS5003;23614;33.774;130.514;2023-03-08T09:48:11;40;35;
37775;PMS5003;23614;33.774;130.514;2023-03-08T09:50:40;42;39;
37775;PMS5003;23614;33.774;130.514;2023-03-08T09:53:04;47;41;
37775;PMS5003;23614;33.774;130.514;2023-03-08T09:55:29;36;34;
37775;PMS5003;23614;33.774;130.514;2023-03-08T09:57:55;37;35;
37775;PMS5003;23614;33.774;130.514;2023-03-08T10:00:21;35;34;
37775;PMS5003;23614;33.774;130.514;2023-03-08T10:02:48;46;42;
37775;PMS5003;23614;33.774;130.514;2023-03-08T10:05:16;47;43;
37775;PMS5003;23614;33.774;130.514;2023-03-08T10:07:43;48;45;
37775;PMS5003;23614;33.774;130.514;2023-03-08T10:10:14;41;40;
37775;PMS5003;23614;33.774;130.514;2023-03-08T10:12:31;43;41;
37775;PMS5003;23614;33.774;130.514;2023-03-08T10:14:57;46;43;
37775;PMS5003;23614;33.774;130.514;2023-03-08T10:17:23;41;38;
37775;PMS5003;23614;33.774;130.514;2023-03-08T10:19:51;43;41;
37775;PMS5003;23614;33.774;130.514;2023-03-08T10:22:15;44;42;
37775;PMS5003;23614;33.774;130.514;2023-03-08T10:24:41;44;38;
37775;PMS5003;23614;33.774;130.514;2023-03-08T10:27:09;50;47;
37775;PMS5003;23614;33.774;130.514;2023-03-08T10:29:32;51;51;
37775;PMS5003;23614;33.774;130.514;2023-03-08T10:31:58;44;42;
37775;PMS5003;23614;33.774;130.514;2023-03-08T10:34:28;42;40;
37775;PMS5003;23614;33.774;130.514;2023-03-08T10:36:51;45;41;
37775;PMS5003;23614;33.774;130.514;2023-03-08T10:39:17;44;40;
37775;PMS5003;23614;33.774;130.514;2023-03-08T10:41:43;46;38;
37775;PMS5003;23614;33.774;130.514;2023-03-08T10:44:11;39;34;
37775;PMS5003;23614;33.774;130.514;2023-03-08T10:46:34;37;36;
37775;PMS5003;23614;33.774;130.514;2023-03-08T10:49:05;44;41;
37775;PMS5003;23614;33.774;130.514;2023-03-08T10:51:27;46;41;
37775;PMS5003;23614;33.774;130.514;2023-03-08T10:53:53;43;39;
37775;PMS5003;23614;33.774;130.514;2023-03-08T10:56:19;43;40;
37775;PMS5003;23614;33.774;130.514;2023-03-08T10:58:44;45;42;
37775;PMS5003;23614;33.774;130.514;2023-03-08T11:01:21;44;42;
37775;PMS5003;23614;33.774;130.514;2023-03-08T11:03:36;51;45;
37775;PMS5003;23614;33.774;130.514;2023-03-08T11:06:03;43;41;
37775;PMS5003;23614;33.774;130.514;2023-03-08T11:08:29;46;45;
37775;PMS5003;23614;33.774;130.514;2023-03-08T11:11:11;42;42;
37775;PMS5003;23614;33.774;130.514;2023-03-08T11:13:22;42;39;
37775;PMS5003;23614;33.774;130.514;2023-03-08T11:15:47;47;41;
37775;PMS5003;23614;33.774;130.514;2023-03-08T11:18:15;42;39;
37775;PMS5003;23614;33.774;130.514;2023-03-08T11:20:39;47;42;
37775;PMS5003;23614;33.774;130.514;2023-03-08T11:23:10;42;40;
37775;PMS5003;23614;33.774;130.514;2023-03-08T11:25:32;45;43;
37775;PMS5003;23614;33.774;130.514;2023-03-08T11:27:59;46;44;
37775;PMS5003;23614;33.774;130.514;2023-03-08T11:30:25;42;41;
37775;PMS5003;23614;33.774;130.514;2023-03-08T11:32:53;50;46;
37775;PMS5003;23614;33.774;130.514;2023-03-08T11:35:17;43;41;
37775;PMS5003;23614;33.774;130.514;2023-03-08T11:37:43;43;39;
37775;PMS5003;23614;33.774;130.514;2023-03-08T11:42:37;45;40;
37775;PMS5003;23614;33.774;130.514;2023-03-08T11:45:03;49;44;
37775;PMS5003;23614;33.774;130.514;2023-03-08T11:47:36;61;57;
37775;PMS5003;23614;33.774;130.514;2023-03-08T11:49:52;45;43;
37775;PMS5003;23614;33.774;130.514;2023-03-08T11:52:20;45;41;
37775;PMS5003;23614;33.774;130.514;2023-03-08T11:54:46;45;39;
37775;PMS5003;23614;33.774;130.514;2023-03-08T11:57:09;42;39;
37775;PMS5003;23614;33.774;130.514;2023-03-08T11:59:35;49;43;
37775;PMS5003;23614;33.774;130.514;2023-03-08T12:02:01;38;35;
37775;PMS5003;23614;33.774;130.514;2023-03-08T12:04:28;42;42;
37775;PMS5003;23614;33.774;130.514;2023-03-08T12:06:52;48;43;
37775;PMS5003;23614;33.774;130.514;2023-03-08T12:09:21;41;37;
37775;PMS5003;23614;33.774;130.514;2023-03-08T12:11:45;38;33;
37775;PMS5003;23614;33.774;130.514;2023-03-08T12:14:12;40;38;
37775;PMS5003;23614;33.774;130.514;2023-03-08T12:16:38;40;38;
37775;PMS5003;23614;33.774;130.514;2023-03-08T12:19:04;34;30;
37775;PMS5003;23614;33.774;130.514;2023-03-08T12:21:31;39;38;
37775;PMS5003;23614;33.774;130.514;2023-03-08T12:23:57;42;40;
37775;PMS5003;23614;33.774;130.514;2023-03-08T12:26:20;42;39;
37775;PMS5003;23614;33.774;130.514;2023-03-08T12:28:47;42;39;
37775;PMS5003;23614;33.774;130.514;2023-03-08T12:31:18;41;39;
37775;PMS5003;23614;33.774;130.514;2023-03-08T12:33:38;41;33;
37775;PMS5003;23614;33.774;130.514;2023-03-08T12:36:05;41;39;
37775;PMS5003;23614;33.774;130.514;2023-03-08T12:38:32;35;33;
37775;PMS5003;23614;33.774;130.514;2023-03-08T12:40:57;39;33;
37775;PMS5003;23614;33.774;130.514;2023-03-08T12:43:29;40;36;
37775;PMS5003;23614;33.774;130.514;2023-03-08T12:45:59;38;33;
37775;PMS5003;23614;33.774;130.514;2023-03-08T12:48:17;43;37;
37775;PMS5003;23614;33.774;130.514;2023-03-08T12:50:41;38;35;
37775;PMS5003;23614;33.774;130.514;2023-03-08T12:53:17;30;30;
37775;PMS5003;23614;33.774;130.514;2023-03-08T12:55:32;39;36;
37775;PMS5003;23614;33.774;130.514;2023-03-08T12:57:59;39;38;
37775;PMS5003;23614;33.774;130.514;2023-03-08T13:00:27;37;30;
37775;PMS5003;23614;33.774;130.514;2023-03-08T13:02:57;35;31;
37775;PMS5003;23614;33.774;130.514;2023-03-08T13:05:18;41;36;
37775;PMS5003;23614;33.774;130.514;2023-03-08T13:07:48;34;33;
37775;PMS5003;23614;33.774;130.514;2023-03-08T13:10:17;37;31;
37775;PMS5003;23614;33.774;130.514;2023-03-08T13:12:37;39;36;
37775;PMS5003;23614;33.774;130.514;2023-03-08T13:15:07;43;39;
37775;PMS5003;23614;33.774;130.514;2023-03-08T13:17:31;37;34;
37775;PMS5003;23614;33.774;130.514;2023-03-08T13:19:52;37;35;
37775;PMS5003;23614;33.774;130.514;2023-03-08T13:22:19;46;44;
37775;PMS5003;23614;33.774;130.514;2023-03-08T13:24:46;39;36;
37775;PMS5003;23614;33.774;130.514;2023-03-08T13:27:14;46;41;
37775;PMS5003;23614;33.774;130.514;2023-03-08T13:29:36;40;40;
37775;PMS5003;23614;33.774;130.514;2023-03-08T13:32:06;40;36;
37775;PMS5003;23614;33.774;130.514;2023-03-08T13:34:29;38;33;
37775;PMS5003;23614;33.774;130.514;2023-03-08T13:36:54;31;30;
37775;PMS5003;23614;33.774;130.514;2023-03-08T13:39:21;39;37;
37775;PMS5003;23614;33.774;130.514;2023-03-08T13:41:47;33;33;
37775;PMS5003;23614;33.774;130.514;2023-03-08T13:44:14;34;32;
37775;PMS5003;23614;33.774;130.514;2023-03-08T13:46:39;44;39;
37775;PMS5003;23614;33.774;130.514;2023-03-08T13:49:08;40;37;
37775;PMS5003;23614;33.774;130.514;2023-03-08T13:51:30;36;35;
37775;PMS5003;23614;33.774;130.514;2023-03-08T13:53:56;32;31;
37775;PMS5003;23614;33.774;130.514;2023-03-08T13:56:23;47;44;
37775;PMS5003;23614;33.774;130.514;2023-03-08T13:58:48;39;39;
37775;PMS5003;23614;33.774;130.514;2023-03-08T14:01:15;43;40;
37775;PMS5003;23614;33.774;130.514;2023-03-08T14:03:41;47;41;
37775;PMS5003;23614;33.774;130.514;2023-03-08T14:06:13;36;36;
37775;PMS5003;23614;33.774;130.514;2023-03-08T14:08:32;35;34;
37775;PMS5003;23614;33.774;130.514;2023-03-08T14:10:59;42;40;
37775;PMS5003;23614;33.774;130.514;2023-03-08T14:13:25;35;32;
37775;PMS5003;23614;33.774;130.514;2023-03-08T14:15:52;43;42;
37775;PMS5003;23614;33.774;130.514;2023-03-08T14:18:19;34;32;
37775;PMS5003;23614;33.774;130.514;2023-03-08T14:20:42;39;35;
37775;PMS5003;23614;33.774;130.514;2023-03-08T14:23:13;46;43;
37775;PMS5003;23614;33.774;130.514;2023-03-08T14:25:34;43;40;
37775;PMS5003;23614;33.774;130.514;2023-03-08T14:28:00;37;34;
37775;PMS5003;23614;33.774;130.514;2023-03-08T14:30:27;66;63;
37775;PMS5003;23614;33.774;130.514;2023-03-08T14:32:58;55;51;
37775;PMS5003;23614;33.774;130.514;2023-03-08T14:35:21;48;47;
37775;PMS5003;23614;33.774;130.514;2023-03-08T14:37:44;45;43;
37775;PMS5003;23614;33.774;130.514;2023-03-08T14:40:18;53;48;
37775;PMS5003;23614;33.774;130.514;2023-03-08T14:42:40;48;45;
37775;PMS5003;23614;33.774;130.514;2023-03-08T14:45:03;34;32;
37775;PMS5003;23614;33.774;130.514;2023-03-08T14:47:29;37;32;
37775;PMS5003;23614;33.774;130.514;2023-03-08T14:49:56;29;29;
37775;PMS5003;23614;33.774;130.514;2023-03-08T14:52:20;32;31;
37775;PMS5003;23614;33.774;130.514;2023-03-08T14:54:47;33;31;
37775;PMS5003;23614;33.774;130.514;2023-03-08T14:57:14;32;32;
37775;PMS5003;23614;33.774;130.514;2023-03-08T14:59:38;29;29;
37775;PMS5003;23614;33.774;130.514;2023-03-08T15:02:07;33;29;
37775;PMS5003;23614;33.774;130.514;2023-03-08T15:04:30;35;34;
37775;PMS5003;23614;33.774;130.514;2023-03-08T15:06:56;31;27;
37775;PMS5003;23614;33.774;130.514;2023-03-08T15:09:22;29;28;
37775;PMS5003;23614;33.774;130.514;2023-03-08T15:11:49;28;27;
37775;PMS5003;23614;33.774;130.514;2023-03-08T15:14:14;30;27;
37775;PMS5003;23614;33.774;130.514;2023-03-08T15:16:40;32;28;
37775;PMS5003;23614;33.774;130.514;2023-03-08T15:19:06;36;32;
37775;PMS5003;23614;33.774;130.514;2023-03-08T15:21:32;34;31;
37775;PMS5003;23614;33.774;130.514;2023-03-08T15:23:58;23;22;
37775;PMS5003;23614;33.774;130.514;2023-03-08T15:26:25;30;30;
37775;PMS5003;23614;33.774;130.514;2023-03-08T15:28:50;28;26;
37775;PMS5003;23614;33.774;130.514;2023-03-08T15:31:16;27;25;
37775;PMS5003;23614;33.774;130.514;2023-03-08T15:33:42;32;28;
37775;PMS5003;23614;33.774;130.514;2023-03-08T15:36:09;27;26;
37775;PMS5003;23614;33.774;130.514;2023-03-08T15:38:34;30;27;
37775;PMS5003;23614;33.774;130.514;2023-03-08T15:41:00;29;26;